createdAt,value
2023-03-04T00:00:17.257Z,1024.79
2023-03-04T00:00:48.211Z,1024.80
2023-03-04T00:01:19.138Z,1024.80
2023-03-04T00:01:50.088Z,1024.81
2023-03-04T00:02:21.195Z,1024.81
2023-03-04T00:02:51.621Z,1024.82
2023-03-04T00:03:22.586Z,1024.82
2023-03-04T00:03:53.510Z,1024.83
2023-03-04T00:04:24.437Z,1024.83
2023-03-04T00:04:55.347Z,1024.84
2023-03-04T00:05:26.269Z,1024.84
2023-03-04T00:05:57.217Z,1024.83
2023-03-04T00:06:28.138Z,1024.83
2023-03-04T00:06:59.054Z,1024.83
2023-03-04T00:07:29.979Z,1024.83
2023-03-04T00:08:00.890Z,1024.83
2023-03-04T00:08:31.789Z,1024.84
2023-03-04T00:09:02.704Z,1024.85
2023-03-04T00:09:33.627Z,1024.86
2023-03-04T00:10:04.588Z,1024.86
2023-03-04T00:10:35.487Z,1024.87
2023-03-04T00:11:06.421Z,1024.87
2023-03-04T00:11:37.358Z,1024.87
2023-03-04T00:12:39.204Z,1024.88
2023-03-04T00:13:10.113Z,1024.88
2023-03-04T00:13:41.039Z,1024.87
2023-03-04T00:14:11.990Z,1024.87
2023-03-04T00:14:42.923Z,1024.86
2023-03-04T00:15:13.845Z,1024.86
2023-03-04T00:15:44.756Z,1024.86
2023-03-04T00:16:15.703Z,1024.86
2023-03-04T00:16:46.689Z,1024.86
2023-03-04T00:17:17.121Z,1024.87
2023-03-04T00:17:48.049Z,1024.87
2023-03-04T00:18:18.972Z,1024.88
2023-03-04T00:18:49.873Z,1024.89
2023-03-04T00:19:20.791Z,1024.89
2023-03-04T00:19:51.710Z,1024.90
2023-03-04T00:20:22.627Z,1024.90
2023-03-04T00:20:53.568Z,1024.91
2023-03-04T00:21:24.507Z,1024.91
2023-03-04T00:21:55.417Z,1024.91
2023-03-04T00:22:26.360Z,1024.90
2023-03-04T00:22:57.257Z,1024.90
2023-03-04T00:23:28.174Z,1024.89
2023-03-04T00:23:59.109Z,1024.89
2023-03-04T00:24:30.010Z,1024.89
2023-03-04T00:25:00.940Z,1024.89
2023-03-04T00:25:31.871Z,1024.89
2023-03-04T00:26:02.829Z,1024.90
2023-03-04T00:26:33.739Z,1024.89
2023-03-04T00:27:04.683Z,1024.90
2023-03-04T00:27:35.602Z,1024.90
2023-03-04T00:28:06.520Z,1024.90
2023-03-04T00:28:37.443Z,1024.90
2023-03-04T00:29:08.377Z,1024.90
2023-03-04T00:29:39.270Z,1024.90
2023-03-04T00:30:10.218Z,1024.90
2023-03-04T00:30:41.149Z,1024.90
2023-03-04T00:31:12.069Z,1024.91
2023-03-04T00:31:43.049Z,1024.91
2023-03-04T00:32:14.020Z,1024.91
2023-03-04T00:32:44.511Z,1024.91
2023-03-04T00:33:14.973Z,1024.91
2023-03-04T00:33:45.902Z,1024.90
2023-03-04T00:34:16.869Z,1024.90
2023-03-04T00:34:47.788Z,1024.90
2023-03-04T00:35:18.767Z,1024.89
2023-03-04T00:35:49.791Z,1024.89
2023-03-04T00:36:20.211Z,1024.89
2023-03-04T00:36:51.119Z,1024.89
2023-03-04T00:37:22.020Z,1024.89
2023-03-04T00:37:52.973Z,1024.90
2023-03-04T00:38:23.882Z,1024.91
2023-03-04T00:38:54.818Z,1024.91
2023-03-04T00:39:25.729Z,1024.92
2023-03-04T00:39:56.654Z,1024.92
2023-03-04T00:40:27.607Z,1024.92
2023-03-04T00:40:58.524Z,1024.92
2023-03-04T00:41:29.459Z,1024.93
2023-03-04T00:42:00.366Z,1024.93
2023-03-04T00:42:31.304Z,1024.92
2023-03-04T00:43:02.223Z,1024.93
2023-03-04T00:43:33.119Z,1024.92
2023-03-04T00:44:04.157Z,1024.93
2023-03-04T00:44:34.601Z,1024.93
2023-03-04T00:45:05.536Z,1024.93
2023-03-04T00:45:36.536Z,1024.93
2023-03-04T00:46:07.021Z,1024.93
2023-03-04T00:46:37.471Z,1024.93
2023-03-04T00:47:08.379Z,1024.93
2023-03-04T00:47:39.309Z,1024.93
2023-03-04T00:48:10.209Z,1024.94
2023-03-04T00:48:41.130Z,1024.94
2023-03-04T00:49:12.050Z,1024.94
2023-03-04T00:49:42.973Z,1024.94
2023-03-04T00:50:13.892Z,1024.94
2023-03-04T00:50:44.859Z,1024.95
2023-03-04T00:51:15.746Z,1024.95
2023-03-04T00:51:46.694Z,1024.95
2023-03-04T00:52:48.546Z,1024.95
2023-03-04T00:53:19.475Z,1024.95
2023-03-04T00:53:50.361Z,1024.96
2023-03-04T00:54:21.282Z,1024.95
2023-03-04T00:54:52.194Z,1024.95
2023-03-04T00:55:23.080Z,1024.95
2023-03-04T00:55:53.986Z,1024.94
2023-03-04T00:56:24.910Z,1024.94
2023-03-04T00:56:55.811Z,1024.93
2023-03-04T00:57:26.723Z,1024.93
2023-03-04T00:57:57.663Z,1024.92
2023-03-04T00:58:28.595Z,1024.92
2023-03-04T00:58:59.554Z,1024.91
2023-03-04T00:59:30.500Z,1024.91
2023-03-04T01:00:01.421Z,1024.91
2023-03-04T01:00:32.356Z,1024.90
2023-03-04T01:01:03.275Z,1024.90
2023-03-04T01:01:34.318Z,1024.89
2023-03-04T01:02:04.830Z,1024.89
2023-03-04T01:02:35.807Z,1024.88
2023-03-04T01:03:06.748Z,1024.87
2023-03-04T01:03:37.648Z,1024.86
2023-03-04T01:04:08.583Z,1024.85
2023-03-04T01:04:39.537Z,1024.84
2023-03-04T01:05:10.441Z,1024.84
2023-03-04T01:05:41.346Z,1024.83
2023-03-04T01:06:12.313Z,1024.82
2023-03-04T01:06:43.262Z,1024.82
2023-03-04T01:07:14.195Z,1024.81
2023-03-04T01:07:45.130Z,1024.81
2023-03-04T01:08:16.046Z,1024.80
2023-03-04T01:08:46.981Z,1024.79
2023-03-04T01:09:17.898Z,1024.79
2023-03-04T01:10:19.737Z,1024.77
2023-03-04T01:10:50.649Z,1024.76
2023-03-04T01:11:21.588Z,1024.75
2023-03-04T01:11:52.519Z,1024.74
2023-03-04T01:12:23.456Z,1024.73
2023-03-04T01:12:54.347Z,1024.72
2023-03-04T01:13:25.277Z,1024.71
2023-03-04T01:13:56.189Z,1024.71
2023-03-04T01:14:27.111Z,1024.70
2023-03-04T01:14:58.043Z,1024.69
2023-03-04T01:15:28.973Z,1024.68
2023-03-04T01:15:59.881Z,1024.67
2023-03-04T01:16:30.845Z,1024.66
2023-03-04T01:17:01.845Z,1024.65
2023-03-04T01:17:32.847Z,1024.64
2023-03-04T01:18:03.819Z,1024.64
2023-03-04T01:18:34.782Z,1024.63
2023-03-04T01:19:05.693Z,1024.63
2023-03-04T01:19:36.594Z,1024.63
2023-03-04T01:20:07.513Z,1024.63
2023-03-04T01:20:38.442Z,1024.63
2023-03-04T01:21:09.379Z,1024.63
2023-03-04T01:21:40.321Z,1024.62
2023-03-04T01:22:11.227Z,1024.61
2023-03-04T01:22:42.134Z,1024.61
2023-03-04T01:23:13.037Z,1024.61
2023-03-04T01:23:43.957Z,1024.61
2023-03-04T01:24:14.865Z,1024.60
2023-03-04T01:24:45.789Z,1024.60
2023-03-04T01:25:16.725Z,1024.60
2023-03-04T01:25:47.619Z,1024.61
2023-03-04T01:26:18.582Z,1024.61
2023-03-04T01:26:49.478Z,1024.61
2023-03-04T01:27:20.408Z,1024.61
2023-03-04T01:27:51.300Z,1024.61
2023-03-04T01:28:22.226Z,1024.62
2023-03-04T01:28:53.133Z,1024.62
2023-03-04T01:29:24.041Z,1024.62
2023-03-04T01:29:54.968Z,1024.62
2023-03-04T01:30:25.906Z,1024.62
2023-03-04T01:30:56.830Z,1024.62
2023-03-04T01:31:27.756Z,1024.62
2023-03-04T01:32:29.724Z,1024.61
2023-03-04T01:33:00.155Z,1024.62
2023-03-04T01:33:31.058Z,1024.61
2023-03-04T01:34:01.992Z,1024.61
2023-03-04T01:34:32.902Z,1024.61
2023-03-04T01:35:03.832Z,1024.61
2023-03-04T01:35:34.790Z,1024.61
2023-03-04T01:36:05.719Z,1024.61
2023-03-04T01:36:36.655Z,1024.61
2023-03-04T01:37:38.464Z,1024.61
2023-03-04T01:38:09.361Z,1024.61
2023-03-04T01:38:40.283Z,1024.60
2023-03-04T01:39:11.223Z,1024.60
2023-03-04T01:39:42.100Z,1024.59
2023-03-04T01:40:13.047Z,1024.57
2023-03-04T01:40:44.009Z,1024.56
2023-03-04T01:41:14.900Z,1024.54
2023-03-04T01:41:45.821Z,1024.54
2023-03-04T01:42:16.746Z,1024.53
2023-03-04T01:42:47.688Z,1024.52
2023-03-04T01:43:18.589Z,1024.51
2023-03-04T01:43:49.531Z,1024.50
2023-03-04T01:44:20.455Z,1024.48
2023-03-04T01:44:51.339Z,1024.47
2023-03-04T01:45:22.288Z,1024.46
2023-03-04T01:45:53.253Z,1024.44
2023-03-04T01:46:24.214Z,1024.42
2023-03-04T01:46:55.181Z,1024.41
2023-03-04T01:47:26.068Z,1024.40
2023-03-04T01:47:56.979Z,1024.39
2023-03-04T01:48:27.902Z,1024.39
2023-03-04T01:48:58.841Z,1024.38
2023-03-04T01:49:29.804Z,1024.38
2023-03-04T01:50:00.709Z,1024.38
2023-03-04T01:50:31.632Z,1024.38
2023-03-04T01:51:02.563Z,1024.38
2023-03-04T01:51:33.469Z,1024.38
2023-03-04T01:52:04.355Z,1024.37
2023-03-04T01:52:35.280Z,1024.37
2023-03-04T01:53:06.216Z,1024.36
2023-03-04T01:53:37.153Z,1024.36
2023-03-04T01:54:08.041Z,1024.37
2023-03-04T01:54:38.928Z,1024.36
2023-03-04T01:55:09.849Z,1024.36
2023-03-04T01:55:40.750Z,1024.37
2023-03-04T01:56:11.679Z,1024.36
2023-03-04T01:56:42.607Z,1024.36
2023-03-04T01:57:13.527Z,1024.36
2023-03-04T01:57:44.511Z,1024.36
2023-03-04T01:58:15.393Z,1024.36
2023-03-04T01:58:46.325Z,1024.36
2023-03-04T01:59:48.169Z,1024.36
2023-03-04T02:00:19.111Z,1024.35
2023-03-04T02:00:50.031Z,1024.35
2023-03-04T02:01:20.998Z,1024.34
2023-03-04T02:01:51.471Z,1024.34
2023-03-04T02:02:21.930Z,1024.34
2023-03-04T02:02:52.846Z,1024.33
2023-03-04T02:03:23.776Z,1024.32
2023-03-04T02:03:54.754Z,1024.32
2023-03-04T02:04:25.888Z,1024.31
2023-03-04T02:04:56.461Z,1024.30
2023-03-04T02:05:27.356Z,1024.29
2023-03-04T02:05:58.030Z,1024.29
2023-03-04T02:06:28.950Z,1024.28
2023-03-04T02:06:59.850Z,1024.28
2023-03-04T02:07:30.773Z,1024.28
2023-03-04T02:08:01.714Z,1024.27
2023-03-04T02:08:32.836Z,1024.26
2023-03-04T02:09:03.269Z,1024.26
2023-03-04T02:09:34.222Z,1024.25
2023-03-04T02:10:05.114Z,1024.25
2023-03-04T02:10:36.014Z,1024.24
2023-03-04T02:11:06.930Z,1024.24
2023-03-04T02:11:37.862Z,1024.23
2023-03-04T02:12:39.697Z,1024.22
2023-03-04T02:13:10.591Z,1024.22
2023-03-04T02:13:41.526Z,1024.22
2023-03-04T02:14:12.471Z,1024.22
2023-03-04T02:14:43.407Z,1024.22
2023-03-04T02:15:14.323Z,1024.23
2023-03-04T02:15:45.332Z,1024.23
2023-03-04T02:16:16.265Z,1024.23
2023-03-04T02:16:47.156Z,1024.23
2023-03-04T02:17:18.105Z,1024.23
2023-03-04T02:17:49.032Z,1024.22
2023-03-04T02:18:19.963Z,1024.22
2023-03-04T02:18:50.907Z,1024.22
2023-03-04T02:19:21.833Z,1024.22
2023-03-04T02:19:52.761Z,1024.22
2023-03-04T02:20:23.692Z,1024.22
2023-03-04T02:20:54.584Z,1024.22
2023-03-04T02:21:25.505Z,1024.23
2023-03-04T02:21:56.440Z,1024.23
2023-03-04T02:22:27.345Z,1024.24
2023-03-04T02:22:58.241Z,1024.24
2023-03-04T02:23:29.163Z,1024.24
2023-03-04T02:24:00.093Z,1024.25
2023-03-04T02:24:30.996Z,1024.25
2023-03-04T02:25:01.920Z,1024.25
2023-03-04T02:25:32.842Z,1024.25
2023-03-04T02:26:03.750Z,1024.25
2023-03-04T02:26:34.670Z,1024.24
2023-03-04T02:27:05.567Z,1024.24
2023-03-04T02:27:36.477Z,1024.24
2023-03-04T02:28:07.394Z,1024.24
2023-03-04T02:28:38.325Z,1024.25
2023-03-04T02:29:09.271Z,1024.25
2023-03-04T02:29:40.182Z,1024.25
2023-03-04T02:30:11.133Z,1024.25
2023-03-04T02:30:42.079Z,1024.25
2023-03-04T02:31:13.041Z,1024.24
2023-03-04T02:31:43.924Z,1024.24
2023-03-04T02:32:14.873Z,1024.25
2023-03-04T02:32:45.791Z,1024.25
2023-03-04T02:33:16.698Z,1024.26
2023-03-04T02:33:47.591Z,1024.26
2023-03-04T02:34:18.511Z,1024.27
2023-03-04T02:34:49.477Z,1024.27
2023-03-04T02:35:20.464Z,1024.27
2023-03-04T02:35:51.485Z,1024.27
2023-03-04T02:36:21.924Z,1024.26
2023-03-04T02:36:52.866Z,1024.25
2023-03-04T02:37:23.767Z,1024.25
2023-03-04T02:37:54.659Z,1024.25
2023-03-04T02:38:25.581Z,1024.24
2023-03-04T02:38:56.539Z,1024.24
2023-03-04T02:39:27.039Z,1024.23
2023-03-04T02:39:58.031Z,1024.23
2023-03-04T02:40:28.942Z,1024.23
2023-03-04T02:40:59.852Z,1024.23
2023-03-04T02:41:30.791Z,1024.24
2023-03-04T02:42:01.735Z,1024.24
2023-03-04T02:42:32.747Z,1024.24
2023-03-04T02:43:03.193Z,1024.25
2023-03-04T02:43:34.111Z,1024.24
2023-03-04T02:44:05.033Z,1024.24
2023-03-04T02:44:35.978Z,1024.24
2023-03-04T02:45:06.894Z,1024.24
2023-03-04T02:45:37.808Z,1024.24
2023-03-04T02:46:08.767Z,1024.25
2023-03-04T02:46:39.684Z,1024.26
2023-03-04T02:47:10.661Z,1024.27
2023-03-04T02:47:41.581Z,1024.28
2023-03-04T02:48:12.544Z,1024.28
2023-03-04T02:48:43.445Z,1024.29
2023-03-04T02:49:14.444Z,1024.29
2023-03-04T02:49:45.341Z,1024.29
2023-03-04T02:50:16.283Z,1024.28
2023-03-04T02:50:47.202Z,1024.27
2023-03-04T02:51:18.124Z,1024.26
2023-03-04T02:51:49.019Z,1024.25
2023-03-04T02:52:19.987Z,1024.25
2023-03-04T02:52:50.902Z,1024.25
2023-03-04T02:53:21.822Z,1024.25
2023-03-04T02:53:52.734Z,1024.25
2023-03-04T02:54:23.723Z,1024.24
2023-03-04T02:54:54.639Z,1024.24
2023-03-04T02:55:25.543Z,1024.23
2023-03-04T02:55:56.466Z,1024.23
2023-03-04T02:56:27.386Z,1024.23
2023-03-04T02:57:29.220Z,1024.22
2023-03-04T02:58:00.125Z,1024.22
2023-03-04T02:58:31.061Z,1024.22
2023-03-04T02:59:01.982Z,1024.22
2023-03-04T02:59:32.904Z,1024.21
2023-03-04T03:00:03.796Z,1024.22
2023-03-04T03:00:34.771Z,1024.22
2023-03-04T03:01:05.684Z,1024.22
2023-03-04T03:01:36.691Z,1024.22
2023-03-04T03:02:07.712Z,1024.22
2023-03-04T03:02:38.184Z,1024.21
2023-03-04T03:03:08.727Z,1024.20
2023-03-04T03:03:39.167Z,1024.20
2023-03-04T03:04:10.078Z,1024.19
2023-03-04T03:04:41.724Z,1024.19
2023-03-04T03:05:11.644Z,1024.19
2023-03-04T03:05:42.575Z,1024.19
2023-03-04T03:06:13.512Z,1024.18
2023-03-04T03:06:44.449Z,1024.19
2023-03-04T03:07:15.384Z,1024.18
2023-03-04T03:07:46.312Z,1024.18
2023-03-04T03:08:17.228Z,1024.18
2023-03-04T03:08:48.189Z,1024.17
2023-03-04T03:09:19.117Z,1024.18
2023-03-04T03:09:50.012Z,1024.17
2023-03-04T03:10:20.954Z,1024.17
2023-03-04T03:10:51.883Z,1024.16
2023-03-04T03:11:22.825Z,1024.16
2023-03-04T03:11:53.746Z,1024.16
2023-03-04T03:12:24.666Z,1024.15
2023-03-04T03:12:55.590Z,1024.15
2023-03-04T03:13:26.523Z,1024.16
2023-03-04T03:13:57.456Z,1024.17
2023-03-04T03:14:28.387Z,1024.17
2023-03-04T03:14:59.275Z,1024.17
2023-03-04T03:15:30.182Z,1024.17
2023-03-04T03:16:01.130Z,1024.18
2023-03-04T03:16:32.120Z,1024.18
2023-03-04T03:17:03.021Z,1024.18
2023-03-04T03:17:33.978Z,1024.18
2023-03-04T03:18:04.911Z,1024.18
2023-03-04T03:18:35.870Z,1024.18
2023-03-04T03:19:06.795Z,1024.19
2023-03-04T03:20:08.660Z,1024.19
2023-03-04T03:20:39.562Z,1024.20
2023-03-04T03:21:10.498Z,1024.19
2023-03-04T03:21:41.410Z,1024.19
2023-03-04T03:22:12.378Z,1024.20
2023-03-04T03:22:43.273Z,1024.19
2023-03-04T03:23:14.191Z,1024.19
2023-03-04T03:23:45.135Z,1024.19
2023-03-04T03:24:16.056Z,1024.19
2023-03-04T03:24:46.952Z,1024.19
2023-03-04T03:25:17.861Z,1024.19
2023-03-04T03:25:48.785Z,1024.19
2023-03-04T03:26:19.743Z,1024.18
2023-03-04T03:26:50.681Z,1024.18
2023-03-04T03:27:21.605Z,1024.17
2023-03-04T03:27:52.520Z,1024.17
2023-03-04T03:28:23.445Z,1024.16
2023-03-04T03:28:54.327Z,1024.16
2023-03-04T03:29:25.233Z,1024.15
2023-03-04T03:29:56.125Z,1024.15
2023-03-04T03:30:27.044Z,1024.14
2023-03-04T03:30:57.974Z,1024.14
2023-03-04T03:31:28.972Z,1024.14
2023-03-04T03:31:59.561Z,1024.14
2023-03-04T03:32:30.017Z,1024.15
2023-03-04T03:33:00.924Z,1024.14
2023-03-04T03:33:31.903Z,1024.14
2023-03-04T03:34:02.819Z,1024.14
2023-03-04T03:34:33.714Z,1024.13
2023-03-04T03:35:04.650Z,1024.13
2023-03-04T03:35:35.640Z,1024.13
2023-03-04T03:36:06.688Z,1024.12
2023-03-04T03:36:37.223Z,1024.12
2023-03-04T03:37:38.575Z,1024.12
2023-03-04T03:38:09.478Z,1024.12
2023-03-04T03:38:40.418Z,1024.12
2023-03-04T03:39:11.316Z,1024.12
2023-03-04T03:39:42.248Z,1024.12
2023-03-04T03:40:13.182Z,1024.12
2023-03-04T03:40:44.104Z,1024.12
2023-03-04T03:41:15.040Z,1024.12
2023-03-04T03:41:45.941Z,1024.12
2023-03-04T03:42:16.874Z,1024.11
2023-03-04T03:42:47.802Z,1024.11
2023-03-04T03:43:18.733Z,1024.11
2023-03-04T03:43:49.653Z,1024.11
2023-03-04T03:44:20.603Z,1024.11
2023-03-04T03:44:51.522Z,1024.11
2023-03-04T03:45:22.419Z,1024.11
2023-03-04T03:45:53.385Z,1024.11
2023-03-04T03:46:24.282Z,1024.11
2023-03-04T03:46:55.214Z,1024.11
2023-03-04T03:47:26.134Z,1024.11
2023-03-04T03:47:57.064Z,1024.12
2023-03-04T03:48:27.961Z,1024.11
2023-03-04T03:48:58.859Z,1024.11
2023-03-04T03:49:29.783Z,1024.11
2023-03-04T03:50:00.710Z,1024.11
2023-03-04T03:50:31.618Z,1024.11
2023-03-04T03:51:02.557Z,1024.11
2023-03-04T03:51:33.480Z,1024.11
2023-03-04T03:52:04.380Z,1024.12
2023-03-04T03:52:35.307Z,1024.12
2023-03-04T03:53:06.264Z,1024.12
2023-03-04T03:53:37.163Z,1024.12
2023-03-04T03:54:08.095Z,1024.12
2023-03-04T03:54:39.005Z,1024.13
2023-03-04T03:55:10.055Z,1024.13
2023-03-04T03:55:40.427Z,1024.14
2023-03-04T03:56:11.360Z,1024.14
2023-03-04T03:56:42.318Z,1024.14
2023-03-04T03:57:13.214Z,1024.14
2023-03-04T03:57:44.145Z,1024.14
2023-03-04T03:58:15.076Z,1024.14
2023-03-04T03:58:45.976Z,1024.14
2023-03-04T03:59:16.912Z,1024.13
2023-03-04T03:59:47.835Z,1024.12
2023-03-04T04:00:18.741Z,1024.11
2023-03-04T04:00:49.689Z,1024.11
2023-03-04T04:01:20.591Z,1024.11
2023-03-04T04:01:51.589Z,1024.10
2023-03-04T04:02:22.206Z,1024.10
2023-03-04T04:02:52.756Z,1024.11
2023-03-04T04:03:23.200Z,1024.12
2023-03-04T04:03:54.128Z,1024.12
2023-03-04T04:04:25.048Z,1024.13
2023-03-04T04:04:55.967Z,1024.14
2023-03-04T04:05:26.866Z,1024.13
2023-03-04T04:05:57.812Z,1024.14
2023-03-04T04:06:28.736Z,1024.14
2023-03-04T04:06:59.643Z,1024.14
2023-03-04T04:07:30.532Z,1024.15
2023-03-04T04:08:01.436Z,1024.14
2023-03-04T04:08:32.394Z,1024.14
2023-03-04T04:09:03.307Z,1024.14
2023-03-04T04:09:34.246Z,1024.14
2023-03-04T04:10:05.201Z,1024.13
2023-03-04T04:10:35.641Z,1024.14
2023-03-04T04:11:06.565Z,1024.14
2023-03-04T04:11:37.480Z,1024.14
2023-03-04T04:12:08.380Z,1024.14
2023-03-04T04:12:39.306Z,1024.14
2023-03-04T04:13:10.194Z,1024.14
2023-03-04T04:13:41.107Z,1024.14
2023-03-04T04:14:12.035Z,1024.14
2023-03-04T04:14:42.969Z,1024.14
2023-03-04T04:15:13.908Z,1024.13
2023-03-04T04:15:44.828Z,1024.13
2023-03-04T04:16:15.784Z,1024.12
2023-03-04T04:16:46.721Z,1024.13
2023-03-04T04:17:48.582Z,1024.12
2023-03-04T04:18:19.498Z,1024.12
2023-03-04T04:18:50.447Z,1024.12
2023-03-04T04:19:21.346Z,1024.11
2023-03-04T04:19:52.228Z,1024.11
2023-03-04T04:20:25.766Z,1024.11
2023-03-04T04:20:54.072Z,1024.10
2023-03-04T04:21:25.017Z,1024.09
2023-03-04T04:21:55.924Z,1024.08
2023-03-04T04:22:26.856Z,1024.09
2023-03-04T04:22:57.776Z,1024.09
2023-03-04T04:23:28.711Z,1024.09
2023-03-04T04:23:59.715Z,1024.09
2023-03-04T04:24:30.607Z,1024.09
2023-03-04T04:25:01.527Z,1024.09
2023-03-04T04:25:32.465Z,1024.10
2023-03-04T04:26:03.380Z,1024.10
2023-03-04T04:26:34.310Z,1024.10
2023-03-04T04:27:05.214Z,1024.10
2023-03-04T04:27:36.138Z,1024.10
2023-03-04T04:28:07.056Z,1024.10
2023-03-04T04:28:38.008Z,1024.10
2023-03-04T04:29:08.917Z,1024.10
2023-03-04T04:29:39.854Z,1024.10
2023-03-04T04:30:10.776Z,1024.10
2023-03-04T04:30:41.783Z,1024.11
2023-03-04T04:31:12.291Z,1024.10
2023-03-04T04:31:43.209Z,1024.11
2023-03-04T04:32:14.185Z,1024.11
2023-03-04T04:32:44.633Z,1024.11
2023-03-04T04:33:15.564Z,1024.11
2023-03-04T04:33:46.489Z,1024.12
2023-03-04T04:34:17.407Z,1024.12
2023-03-04T04:35:19.280Z,1024.12
2023-03-04T04:35:50.237Z,1024.12
2023-03-04T04:36:21.176Z,1024.13
2023-03-04T04:36:52.098Z,1024.13
2023-03-04T04:37:22.998Z,1024.12
2023-03-04T04:37:53.921Z,1024.12
2023-03-04T04:38:24.860Z,1024.11
2023-03-04T04:38:56.728Z,1024.11
2023-03-04T04:39:26.735Z,1024.10
2023-03-04T04:39:57.611Z,1024.09
2023-03-04T04:40:28.524Z,1024.09
2023-03-04T04:40:59.434Z,1024.08
2023-03-04T04:41:30.374Z,1024.08
2023-03-04T04:42:01.303Z,1024.07
2023-03-04T04:42:32.222Z,1024.07
2023-03-04T04:43:03.174Z,1024.07
2023-03-04T04:43:34.112Z,1024.07
2023-03-04T04:44:05.022Z,1024.06
2023-03-04T04:44:36.052Z,1024.06
2023-03-04T04:45:06.961Z,1024.06
2023-03-04T04:45:38.049Z,1024.06
2023-03-04T04:46:08.589Z,1024.07
2023-03-04T04:46:39.008Z,1024.07
2023-03-04T04:47:10.240Z,1024.07
2023-03-04T04:47:40.667Z,1024.08
2023-03-04T04:48:11.595Z,1024.08
2023-03-04T04:48:42.519Z,1024.08
2023-03-04T04:49:13.463Z,1024.07
2023-03-04T04:49:44.386Z,1024.06
2023-03-04T04:50:15.318Z,1024.06
2023-03-04T04:50:46.227Z,1024.05
2023-03-04T04:51:17.129Z,1024.05
2023-03-04T04:51:48.042Z,1024.05
2023-03-04T04:52:18.955Z,1024.04
2023-03-04T04:52:49.862Z,1024.04
2023-03-04T04:53:20.797Z,1024.04
2023-03-04T04:53:51.733Z,1024.04
2023-03-04T04:54:22.664Z,1024.04
2023-03-04T04:54:53.603Z,1024.05
2023-03-04T04:55:24.498Z,1024.05
2023-03-04T04:55:55.442Z,1024.05
2023-03-04T04:56:26.386Z,1024.06
2023-03-04T04:57:28.194Z,1024.07
2023-03-04T04:57:59.102Z,1024.07
2023-03-04T04:58:30.006Z,1024.07
2023-03-04T04:59:00.889Z,1024.07
2023-03-04T04:59:31.804Z,1024.07
2023-03-04T05:00:02.717Z,1024.08
2023-03-04T05:00:33.629Z,1024.08
2023-03-04T05:01:04.562Z,1024.09
2023-03-04T05:01:35.597Z,1024.10
2023-03-04T05:02:06.069Z,1024.11
2023-03-04T05:02:36.971Z,1024.10
2023-03-04T05:03:07.975Z,1024.10
2023-03-04T05:03:38.420Z,1024.10
2023-03-04T05:04:09.354Z,1024.10
2023-03-04T05:04:40.295Z,1024.10
2023-03-04T05:05:11.203Z,1024.11
2023-03-04T05:05:42.112Z,1024.11
2023-03-04T05:06:13.085Z,1024.12
2023-03-04T05:06:43.990Z,1024.13
2023-03-04T05:07:14.914Z,1024.14
2023-03-04T05:07:45.833Z,1024.14
2023-03-04T05:08:16.768Z,1024.14
2023-03-04T05:08:47.695Z,1024.14
2023-03-04T05:09:18.628Z,1024.15
2023-03-04T05:09:49.559Z,1024.15
2023-03-04T05:10:20.520Z,1024.15
2023-03-04T05:10:51.482Z,1024.16
2023-03-04T05:11:21.961Z,1024.16
2023-03-04T05:11:52.884Z,1024.15
2023-03-04T05:12:23.785Z,1024.15
2023-03-04T05:12:54.686Z,1024.15
2023-03-04T05:13:25.601Z,1024.15
2023-03-04T05:13:56.536Z,1024.15
2023-03-04T05:14:27.484Z,1024.16
2023-03-04T05:14:58.409Z,1024.15
2023-03-04T05:15:29.364Z,1024.16
2023-03-04T05:16:00.331Z,1024.16
2023-03-04T05:16:31.248Z,1024.16
2023-03-04T05:17:02.158Z,1024.15
2023-03-04T05:17:33.076Z,1024.16
2023-03-04T05:18:04.027Z,1024.16
2023-03-04T05:18:34.954Z,1024.16
2023-03-04T05:19:05.860Z,1024.16
2023-03-04T05:19:36.793Z,1024.17
2023-03-04T05:20:07.701Z,1024.17
2023-03-04T05:20:38.640Z,1024.16
2023-03-04T05:21:09.565Z,1024.17
2023-03-04T05:21:40.483Z,1024.17
2023-03-04T05:22:11.438Z,1024.16
2023-03-04T05:22:42.359Z,1024.17
2023-03-04T05:23:13.280Z,1024.18
2023-03-04T05:23:44.212Z,1024.18
2023-03-04T05:24:15.200Z,1024.18
2023-03-04T05:24:46.116Z,1024.18
2023-03-04T05:25:17.079Z,1024.19
2023-03-04T05:25:47.986Z,1024.19
2023-03-04T05:26:18.905Z,1024.18
2023-03-04T05:26:49.784Z,1024.18
2023-03-04T05:27:20.688Z,1024.18
2023-03-04T05:27:51.623Z,1024.17
2023-03-04T05:28:22.565Z,1024.18
2023-03-04T05:28:53.469Z,1024.19
2023-03-04T05:29:24.333Z,1024.18
2023-03-04T05:29:55.193Z,1024.18
2023-03-04T05:30:26.080Z,1024.19
2023-03-04T05:30:56.975Z,1024.20
2023-03-04T05:31:27.983Z,1024.20
2023-03-04T05:31:58.479Z,1024.20
2023-03-04T05:32:29.440Z,1024.20
2023-03-04T05:32:59.850Z,1024.21
2023-03-04T05:33:30.734Z,1024.21
2023-03-04T05:34:01.603Z,1024.22
2023-03-04T05:34:32.476Z,1024.21
2023-03-04T05:35:03.340Z,1024.22
2023-03-04T05:35:34.258Z,1024.22
2023-03-04T05:36:05.139Z,1024.22
2023-03-04T05:36:35.999Z,1024.22
2023-03-04T05:37:06.872Z,1024.22
2023-03-04T05:37:37.743Z,1024.22
2023-03-04T05:38:08.633Z,1024.22
2023-03-04T05:38:39.514Z,1024.23
2023-03-04T05:39:10.397Z,1024.22
2023-03-04T05:39:41.248Z,1024.23
2023-03-04T05:40:12.115Z,1024.23
2023-03-04T05:40:42.971Z,1024.23
2023-03-04T05:41:13.868Z,1024.23
2023-03-04T05:41:44.727Z,1024.23
2023-03-04T05:42:15.588Z,1024.22
2023-03-04T05:42:46.427Z,1024.23
2023-03-04T05:43:17.295Z,1024.23
2023-03-04T05:43:48.156Z,1024.23
2023-03-04T05:44:19.023Z,1024.22
2023-03-04T05:44:49.937Z,1024.22
2023-03-04T05:45:20.844Z,1024.22
2023-03-04T05:45:51.682Z,1024.22
2023-03-04T05:46:22.601Z,1024.22
2023-03-04T05:46:53.505Z,1024.21
2023-03-04T05:47:24.400Z,1024.22
2023-03-04T05:47:55.305Z,1024.22
2023-03-04T05:48:26.178Z,1024.23
2023-03-04T05:48:57.064Z,1024.23
2023-03-04T05:49:27.932Z,1024.24
2023-03-04T05:50:29.652Z,1024.24
2023-03-04T05:51:00.538Z,1024.24
2023-03-04T05:51:31.397Z,1024.25
2023-03-04T05:52:02.294Z,1024.24
2023-03-04T05:52:33.154Z,1024.23
2023-03-04T05:53:04.032Z,1024.23
2023-03-04T05:53:34.918Z,1024.23
2023-03-04T05:54:05.769Z,1024.23
2023-03-04T05:54:36.658Z,1024.23
2023-03-04T05:55:07.507Z,1024.23
2023-03-04T05:55:38.379Z,1024.24
2023-03-04T05:56:09.242Z,1024.24
2023-03-04T05:56:40.151Z,1024.24
2023-03-04T05:57:10.991Z,1024.24
2023-03-04T05:57:41.852Z,1024.24
2023-03-04T05:58:12.728Z,1024.24
2023-03-04T05:58:43.630Z,1024.24
2023-03-04T05:59:14.484Z,1024.24
2023-03-04T05:59:45.364Z,1024.24
2023-03-04T06:00:16.289Z,1024.23
2023-03-04T06:00:47.133Z,1024.25
2023-03-04T06:01:18.096Z,1024.26
2023-03-04T06:01:48.937Z,1024.26
2023-03-04T06:02:19.854Z,1024.27
2023-03-04T06:02:50.804Z,1024.27
2023-03-04T06:03:21.682Z,1024.27
2023-03-04T06:03:52.632Z,1024.28
2023-03-04T06:04:23.478Z,1024.29
2023-03-04T06:04:54.364Z,1024.30
2023-03-04T06:05:25.223Z,1024.29
2023-03-04T06:05:56.083Z,1024.31
2023-03-04T06:06:26.975Z,1024.31
2023-03-04T06:06:57.879Z,1024.31
2023-03-04T06:07:59.583Z,1024.33
2023-03-04T06:08:30.457Z,1024.33
2023-03-04T06:09:01.334Z,1024.34
2023-03-04T06:09:32.194Z,1024.35
2023-03-04T06:10:03.057Z,1024.35
2023-03-04T06:10:33.938Z,1024.36
2023-03-04T06:11:04.780Z,1024.36
2023-03-04T06:11:36.445Z,1024.36
2023-03-04T06:12:06.405Z,1024.36
2023-03-04T06:12:37.246Z,1024.36
2023-03-04T06:13:08.127Z,1024.37
2023-03-04T06:13:39.043Z,1024.37
2023-03-04T06:14:10.064Z,1024.38
2023-03-04T06:14:40.437Z,1024.38
2023-03-04T06:15:11.307Z,1024.38
2023-03-04T06:15:42.191Z,1024.38
2023-03-04T06:16:13.105Z,1024.38
2023-03-04T06:16:44.002Z,1024.37
2023-03-04T06:17:14.867Z,1024.38
2023-03-04T06:17:45.756Z,1024.38
2023-03-04T06:18:16.759Z,1024.38
2023-03-04T06:18:47.135Z,1024.38
2023-03-04T06:19:18.002Z,1024.39
2023-03-04T06:19:48.869Z,1024.39
2023-03-04T06:20:19.762Z,1024.39
2023-03-04T06:20:50.624Z,1024.40
2023-03-04T06:21:21.494Z,1024.39